WST202 MYNN-MYEH
Flight info
| Callsign | WST202 |
|---|---|
| Flight time | 0h 16m |
| Altitude | 7000 |
| Route | JEDIK |
| Aircraft | E145/M-SDFGIRW/S |
Departure
| Time | 2026-05-08 19:56 |
|---|---|
| Airport | Lynden Pindling International Airport (MYNN) |
Arrival
| Time | 2026-05-08 20:12 |
|---|---|
| Airport | North Eleuthera Airport (MYEH) |
| Time | Latitude | Longitude | Altitude | Speed | Heading |
|---|---|---|---|---|---|
| 2026-05-08 19:30 | 25.04747 | -77.46596 | 26 ft | 0 kts | 179° |
| 2026-05-08 19:51 | 25.04742 | -77.46596 | 26 ft | 0 kts | 190° |
| 2026-05-08 19:51 | 25.04722 | -77.46609 | 25 ft | 10 kts | 227° |
| 2026-05-08 19:52 | 25.04731 | -77.46699 | 23 ft | 11 kts | 252° |
| 2026-05-08 19:52 | 25.04678 | -77.46742 | 23 ft | 9 kts | 173° |
| 2026-05-08 19:52 | 25.04633 | -77.46694 | 23 ft | 12 kts | 131° |
| 2026-05-08 19:52 | 25.04544 | -77.46600 | 24 ft | 22 kts | 134° |
| 2026-05-08 19:53 | 25.04423 | -77.46481 | 26 ft | 22 kts | 137° |
| 2026-05-08 19:53 | 25.04316 | -77.46347 | 26 ft | 23 kts | 135° |
| 2026-05-08 19:53 | 25.04190 | -77.46210 | 23 ft | 26 kts | 134° |
| 2026-05-08 19:53 | 25.04055 | -77.46060 | 22 ft | 28 kts | 132° |
| 2026-05-08 19:54 | 25.03907 | -77.45924 | 24 ft | 26 kts | 138° |
| 2026-05-08 19:54 | 25.03793 | -77.45767 | 24 ft | 26 kts | 133° |
| 2026-05-08 19:54 | 25.03670 | -77.45633 | 23 ft | 13 kts | 146° |
| 2026-05-08 19:54 | 25.03618 | -77.45629 | 23 ft | 7 kts | 224° |
| 2026-05-08 19:55 | 25.03607 | -77.45677 | 23 ft | 0 kts | 269° |
| 2026-05-08 19:55 | 25.03606 | -77.45685 | 23 ft | 2 kts | 268° |
| 2026-05-08 19:55 | 25.03605 | -77.45830 | 23 ft | 55 kts | 270° |
| 2026-05-08 19:55 | 25.03599 | -77.46549 | 24 ft | 128 kts | 270° |
| 2026-05-08 19:56 | 25.03616 | -77.47660 | 286 ft | 151 kts | 277° |
| 2026-05-08 19:56 | 25.03707 | -77.48829 | 889 ft | 156 kts | 278° |
| 2026-05-08 19:56 | 25.03954 | -77.50094 | 993 ft | 189 kts | 301° |
| 2026-05-08 19:56 | 25.05011 | -77.51079 | 1102 ft | 215 kts | 341° |
| 2026-05-08 19:57 | 25.06515 | -77.51106 | 1305 ft | 220 kts | 19° |
| 2026-05-08 19:57 | 25.07880 | -77.50302 | 1580 ft | 220 kts | 32° |
| 2026-05-08 19:57 | 25.08973 | -77.49220 | 2119 ft | 207 kts | 51° |
| 2026-05-08 19:57 | 25.09777 | -77.47974 | 2622 ft | 198 kts | 57° |
| 2026-05-08 19:58 | 25.10484 | -77.46703 | 3146 ft | 192 kts | 58° |
| 2026-05-08 19:58 | 25.11141 | -77.45458 | 3693 ft | 183 kts | 59° |
| 2026-05-08 19:58 | 25.11749 | -77.44284 | 4232 ft | 173 kts | 61° |
| 2026-05-08 19:58 | 25.12321 | -77.43169 | 4767 ft | 160 kts | 61° |
| 2026-05-08 19:59 | 25.12852 | -77.42133 | 5313 ft | 156 kts | 61° |
| 2026-05-08 19:59 | 25.13372 | -77.41114 | 5861 ft | 154 kts | 62° |
| 2026-05-08 19:59 | 25.13896 | -77.40089 | 6414 ft | 154 kts | 62° |
| 2026-05-08 19:59 | 25.14437 | -77.39029 | 6774 ft | 170 kts | 62° |
| 2026-05-08 20:00 | 25.15063 | -77.37801 | 6979 ft | 198 kts | 62° |
| 2026-05-08 20:00 | 25.15795 | -77.36366 | 6983 ft | 228 kts | 62° |
| 2026-05-08 20:00 | 25.16594 | -77.34802 | 6963 ft | 239 kts | 62° |
| 2026-05-08 20:00 | 25.17425 | -77.33173 | 6960 ft | 248 kts | 62° |
| 2026-05-08 20:01 | 25.18282 | -77.31493 | 6956 ft | 255 kts | 62° |
| 2026-05-08 20:01 | 25.19165 | -77.29760 | 6952 ft | 262 kts | 62° |
| 2026-05-08 20:01 | 25.20075 | -77.27975 | 6951 ft | 267 kts | 62° |
| 2026-05-08 20:01 | 25.20988 | -77.26182 | 6956 ft | 272 kts | 62° |
| 2026-05-08 20:02 | 25.21935 | -77.24321 | 6958 ft | 277 kts | 62° |
| 2026-05-08 20:02 | 25.22881 | -77.22463 | 6958 ft | 281 kts | 62° |
| 2026-05-08 20:02 | 25.23843 | -77.20572 | 6948 ft | 283 kts | 62° |
| 2026-05-08 20:02 | 25.24798 | -77.18694 | 6953 ft | 278 kts | 62° |
| 2026-05-08 20:03 | 25.25740 | -77.16839 | 6945 ft | 275 kts | 61° |
| 2026-05-08 20:03 | 25.26672 | -77.15006 | 6939 ft | 271 kts | 62° |
| 2026-05-08 20:03 | 25.27578 | -77.13220 | 6939 ft | 268 kts | 61° |
| 2026-05-08 20:03 | 25.28490 | -77.11425 | 6942 ft | 266 kts | 62° |
| 2026-05-08 20:04 | 25.29367 | -77.09696 | 6934 ft | 249 kts | 62° |
| 2026-05-08 20:04 | 25.30194 | -77.08068 | 6870 ft | 236 kts | 62° |
| 2026-05-08 20:04 | 25.30997 | -77.06484 | 6570 ft | 235 kts | 61° |
| 2026-05-08 20:04 | 25.31789 | -77.04921 | 6285 ft | 234 kts | 61° |
| 2026-05-08 20:05 | 25.32573 | -77.03373 | 5999 ft | 232 kts | 62° |
| 2026-05-08 20:05 | 25.33363 | -77.01814 | 5709 ft | 231 kts | 61° |
| 2026-05-08 20:05 | 25.34148 | -77.00264 | 5422 ft | 230 kts | 62° |
| 2026-05-08 20:05 | 25.34929 | -76.98721 | 5134 ft | 229 kts | 61° |
| 2026-05-08 20:06 | 25.35709 | -76.97178 | 4845 ft | 229 kts | 61° |
| 2026-05-08 20:06 | 25.36485 | -76.95645 | 4499 ft | 231 kts | 61° |
| 2026-05-08 20:06 | 25.37271 | -76.94092 | 4142 ft | 233 kts | 61° |
| 2026-05-08 20:06 | 25.38039 | -76.92530 | 3786 ft | 234 kts | 67° |
| 2026-05-08 20:07 | 25.38436 | -76.90888 | 3401 ft | 204 kts | 72° |
| 2026-05-08 20:07 | 25.39076 | -76.89649 | 3005 ft | 171 kts | 41° |
| 2026-05-08 20:07 | 25.39916 | -76.88806 | 2623 ft | 172 kts | 56° |
| 2026-05-08 20:07 | 25.40412 | -76.87553 | 2505 ft | 183 kts | 69° |
| 2026-05-08 20:08 | 25.40859 | -76.86259 | 2453 ft | 177 kts | 69° |
| 2026-05-08 20:08 | 25.41271 | -76.85017 | 2307 ft | 171 kts | 69° |
| 2026-05-08 20:08 | 25.41726 | -76.83816 | 2113 ft | 169 kts | 66° |
| 2026-05-08 20:08 | 25.42185 | -76.82636 | 1956 ft | 164 kts | 66° |
| 2026-05-08 20:09 | 25.42632 | -76.81501 | 1932 ft | 155 kts | 66° |
| 2026-05-08 20:09 | 25.43058 | -76.80419 | 1940 ft | 154 kts | 66° |
| 2026-05-08 20:09 | 25.43493 | -76.79316 | 1877 ft | 158 kts | 66° |
| 2026-05-08 20:09 | 25.43934 | -76.78198 | 1804 ft | 152 kts | 66° |
| 2026-05-08 20:10 | 25.44308 | -76.77210 | 1664 ft | 132 kts | 68° |
| 2026-05-08 20:10 | 25.44663 | -76.76156 | 1563 ft | 154 kts | 70° |
| 2026-05-08 20:10 | 25.45047 | -76.75018 | 1438 ft | 156 kts | 69° |
| 2026-05-08 20:10 | 25.45442 | -76.73930 | 1280 ft | 150 kts | 66° |
| 2026-05-08 20:11 | 25.45868 | -76.72890 | 1123 ft | 146 kts | 66° |
| 2026-05-08 20:11 | 25.46261 | -76.71856 | 840 ft | 144 kts | 68° |
| 2026-05-08 20:11 | 25.46615 | -76.70766 | 560 ft | 160 kts | 72° |
| 2026-05-08 20:11 | 25.47003 | -76.69659 | 247 ft | 147 kts | 66° |
| 2026-05-08 20:12 | 25.47372 | -76.68655 | 28 ft | 133 kts | 68° |
| 2026-05-08 20:12 | 25.47671 | -76.67827 | 29 ft | 88 kts | 65° |
| 2026-05-08 20:12 | 25.47778 | -76.67568 | 35 ft | 7 kts | 81° |
| 2026-05-08 20:12 | 25.47765 | -76.67562 | 35 ft | 2 kts | 213° |
| 2026-05-08 20:13 | 25.47756 | -76.67593 | 35 ft | 6 kts | 253° |
| 2026-05-08 20:13 | 25.47735 | -76.67669 | 33 ft | 16 kts | 250° |
| 2026-05-08 20:13 | 25.47669 | -76.67847 | 29 ft | 33 kts | 248° |
| 2026-05-08 20:13 | 25.47582 | -76.68091 | 25 ft | 23 kts | 259° |
| 2026-05-08 20:14 | 25.47626 | -76.68179 | 25 ft | 4 kts | 331° |
| 2026-05-08 20:14 | 25.47643 | -76.68174 | 25 ft | 0 kts | 69° |